Transatlantic — WDC2769 — position and weather

sailwx.info

Track history (hours):
 
Tides and Currents Weather Stations Pressure Air Temp Water Temp Dewpoint Dewpoint Depression Visibility Wind Speed Wind Dir Waves Ship Positions

Transatlantic

Owner: TRANSATLANTIC LINES SHIP HOLDINGS II INC, Greenwich, CT. More information available from US FCC via Universal Licensing System and Coast Guard Vessel Documentation Center.

Last reported at 2015-Jan-29 16:33 UTC. Time now 2015-Feb-01 05:40 UTC.
Position N 35°60' W 005°24'.

Length 101 m; draft 4.9 m.

Type: Cargo ship. MMSI: 366997520.

Date/timePositionNaut miles runAvg speedWind from/ knotsBaromVisibWave heightAir tempDewpointWater temp
2015-Jan-29 16:33N 35°60' W 005°24'5 5.0
2015-Jan-29 15:33N 35°58' W 005°18'4 4.3
2015-Jan-29 14:34N 35°54' W 005°19'0 0.0
2015-Jan-29 13:31N 35°54' W 005°19'0 0.0
2015-Jan-29 12:33N 35°54' W 005°19'0 0.0
2015-Jan-29 11:33N 35°54' W 005°19'0 0.0
2015-Jan-29 10:34N 35°54' W 005°19'0 0.0
2015-Jan-29 09:30N 35°54' W 005°19'0 0.0
2015-Jan-29 08:33N 35°54' W 005°19'0 0.0
2015-Jan-29 07:33N 35°54' W 005°19'0 0.1
2015-Jan-29 06:33N 35°54' W 005°19'6 5.2
2015-Jan-29 05:30N 35°57' W 005°13'269 8.8
2015-Jan-27 23:05N 36°54' E 000°13'5 8.3
2015-Jan-27 22:32N 36°55' E 000°18'10 8.6
2015-Jan-27 21:21N 36°59' E 000°30'8 9.4
2015-Jan-27 20:33N 37°02' E 000°39'10 9.7
2015-Jan-27 19:33N 37°05' E 000°50'  
2015-Jan-24 08:13N 36°33' E 013°43'14 3.7
2015-Jan-24 04:26N 36°27' E 013°59'  
Track history (hours):
 
Tides and Currents Weather Stations Pressure Air Temp Water Temp Dewpoint Dewpoint Depression Visibility Wind Speed Wind Dir Waves Ship Positions

Transatlantic

Owner: TRANSATLANTIC LINES SHIP HOLDINGS II INC, Greenwich, CT. More information available from US FCC via Universal Licensing System and Coast Guard Vessel Documentation Center.

Last reported at 2015-Jan-29 16:33 UTC. Time now 2015-Feb-01 05:40 UTC.
Position N 35°60' W 005°24'.

Length 101 m; draft 4.9 m.

Type: Cargo ship. MMSI: 366997520.

Date/timePositionNaut miles runAvg speedWind from/ knotsBaromVisibWave heightAir tempDewpointWater temp
2015-Jan-29 16:33N 35°60' W 005°24'5 5.0
2015-Jan-29 15:33N 35°58' W 005°18'4 4.3
2015-Jan-29 14:34N 35°54' W 005°19'0 0.0
2015-Jan-29 13:31N 35°54' W 005°19'0 0.0
2015-Jan-29 12:33N 35°54' W 005°19'0 0.0
2015-Jan-29 11:33N 35°54' W 005°19'0 0.0
2015-Jan-29 10:34N 35°54' W 005°19'0 0.0
2015-Jan-29 09:30N 35°54' W 005°19'0 0.0
2015-Jan-29 08:33N 35°54' W 005°19'0 0.0
2015-Jan-29 07:33N 35°54' W 005°19'0 0.1
2015-Jan-29 06:33N 35°54' W 005°19'6 5.2
2015-Jan-29 05:30N 35°57' W 005°13'269 8.8
2015-Jan-27 23:05N 36°54' E 000°13'5 8.3
2015-Jan-27 22:32N 36°55' E 000°18'10 8.6
2015-Jan-27 21:21N 36°59' E 000°30'8 9.4
2015-Jan-27 20:33N 37°02' E 000°39'10 9.7
2015-Jan-27 19:33N 37°05' E 000°50'  
2015-Jan-24 08:13N 36°33' E 013°43'14 3.7
2015-Jan-24 04:26N 36°27' E 013°59'  

Dump ship's entire track history